createdAt,value
2023-05-09T00:00:11.384Z,100236.00
2023-05-09T00:00:42.945Z,100232.50
2023-05-09T00:01:14.530Z,100238.53
2023-05-09T00:01:46.230Z,100234.19
2023-05-09T00:02:17.924Z,100234.19
2023-05-09T00:02:49.711Z,100233.59
2023-05-09T00:03:21.664Z,100230.91
2023-05-09T00:03:53.437Z,100229.38
2023-05-09T00:04:25.572Z,100225.59
2023-05-09T00:04:57.433Z,100232.03
2023-05-09T00:05:29.002Z,100232.03
2023-05-09T00:06:00.589Z,100225.94
2023-05-09T00:06:32.209Z,100229.97
2023-05-09T00:07:03.857Z,100229.25
2023-05-09T00:07:35.486Z,100228.50
2023-05-09T00:08:07.152Z,100224.16
2023-05-09T00:08:38.696Z,100229.38
2023-05-09T00:09:10.292Z,100226.59
2023-05-09T00:09:41.861Z,100231.16
2023-05-09T00:10:13.559Z,100230.44
2023-05-09T00:10:45.133Z,100222.56
2023-05-09T00:11:16.796Z,100224.28
2023-05-09T00:11:48.415Z,100227.63
2023-05-09T00:12:20.218Z,100224.06
2023-05-09T00:12:51.862Z,100232.75
2023-05-09T00:13:23.557Z,100225.84
2023-05-09T00:13:55.181Z,100214.25
2023-05-09T00:14:26.733Z,100223.44
2023-05-09T00:14:58.467Z,100226.22
2023-05-09T00:15:30.013Z,100221.03
2023-05-09T00:16:01.566Z,100222.44
2023-05-09T00:16:33.255Z,100222.22
2023-05-09T00:17:05.022Z,100225.72
2023-05-09T00:17:36.679Z,100217.88
2023-05-09T00:18:08.321Z,100219.44
2023-05-09T00:18:39.901Z,100214.81
2023-05-09T00:19:11.455Z,100217.63
2023-05-09T00:19:43.381Z,100223.19
2023-05-09T00:20:14.944Z,100221.13
2023-05-09T00:20:46.587Z,100216.91
2023-05-09T00:21:18.173Z,100223.06
2023-05-09T00:21:49.958Z,100223.19
2023-05-09T00:22:21.670Z,100219.66
2023-05-09T00:22:53.319Z,100215.94
2023-05-09T00:23:24.967Z,100213.50
2023-05-09T00:23:56.826Z,100222.22
2023-05-09T00:24:28.422Z,100212.53
2023-05-09T00:25:00.314Z,100209.13
2023-05-09T00:25:31.925Z,100208.91
2023-05-09T00:26:03.580Z,100213.28
2023-05-09T00:26:35.134Z,100208.09
2023-05-09T00:27:06.740Z,100214.47
2023-05-09T00:27:38.295Z,100211.94
2023-05-09T00:28:10.071Z,100213.16
2023-05-09T00:28:41.795Z,100202.41
2023-05-09T00:29:13.558Z,100214.00
2023-05-09T00:29:45.322Z,100208.69
2023-05-09T00:30:16.990Z,100203.94
2023-05-09T00:30:48.631Z,100198.75
2023-05-09T00:31:20.602Z,100208.44
2023-05-09T00:31:52.474Z,100200.44
2023-05-09T00:32:24.323Z,100202.28
2023-05-09T00:32:56.180Z,100198.50
2023-05-09T00:33:28.029Z,100197.06
2023-05-09T00:33:59.794Z,100200.81
2023-05-09T00:34:31.605Z,100196.09
2023-05-09T00:35:03.352Z,100193.66
2023-05-09T00:35:35.063Z,100197.91
2023-05-09T00:36:06.905Z,100196.81
2023-05-09T00:36:38.532Z,100197.06
2023-05-09T00:37:10.178Z,100198.50
2023-05-09T00:37:41.802Z,100187.25
2023-05-09T00:38:13.506Z,100192.84
2023-05-09T00:38:45.125Z,100190.19
2023-05-09T00:39:16.685Z,100186.19
2023-05-09T00:39:48.476Z,100187.25
2023-05-09T00:40:20.119Z,100187.63
2023-05-09T00:40:51.667Z,100188.34
2023-05-09T00:41:23.236Z,100184.97
2023-05-09T00:41:55.849Z,100177.72
2023-05-09T00:42:27.496Z,100175.78
2023-05-09T00:42:59.494Z,100178.44
2023-05-09T00:43:31.057Z,100178.56
2023-05-09T00:44:02.712Z,100176.16
2023-05-09T00:44:34.279Z,100175.03
2023-05-09T00:45:06.348Z,100177.00
2023-05-09T00:45:37.938Z,100176.28
2023-05-09T00:46:09.582Z,100176.88
2023-05-09T00:46:41.244Z,100179.66
2023-05-09T00:47:12.942Z,100167.31
2023-05-09T00:47:44.578Z,100166.47
2023-05-09T00:48:16.189Z,100178.25
2023-05-09T00:48:47.827Z,100176.41
2023-05-09T00:49:19.416Z,100177.00
2023-05-09T00:49:51.051Z,100166.34
2023-05-09T00:50:22.706Z,100169.03
2023-05-09T00:50:54.285Z,100172.38
2023-05-09T00:51:25.894Z,100174.22
2023-05-09T00:51:57.563Z,100169.03
2023-05-09T00:52:29.143Z,100174.34
2023-05-09T00:53:00.752Z,100172.63
2023-05-09T00:53:32.379Z,100169.03
2023-05-09T00:54:04.004Z,100163.69
2023-05-09T00:54:35.678Z,100162.00
2023-05-09T00:55:07.488Z,100161.75
2023-05-09T00:55:39.791Z,100165.16
2023-05-09T00:56:11.388Z,100166.09
2023-05-09T00:56:42.961Z,100159.69
2023-05-09T00:57:14.521Z,100158.25
2023-05-09T00:57:46.157Z,100161.75
2023-05-09T00:58:17.690Z,100151.97
2023-05-09T00:58:49.294Z,100149.69
2023-05-09T00:59:20.841Z,100152.34
2023-05-09T00:59:52.476Z,100157.66
2023-05-09T01:00:24.195Z,100152.22
2023-05-09T01:00:55.795Z,100154.16
2023-05-09T01:01:27.500Z,100156.66
2023-05-09T01:01:59.129Z,100155.59
2023-05-09T01:02:30.886Z,100146.31
2023-05-09T01:03:02.613Z,100149.69
2023-05-09T01:03:34.350Z,100151.63
2023-05-09T01:04:05.968Z,100147.28
2023-05-09T01:04:37.594Z,100153.31
2023-05-09T01:05:09.365Z,100150.91
2023-05-09T01:05:51.711Z,100154.28
2023-05-09T01:06:30.601Z,100149.44
2023-05-09T01:07:06.530Z,100151.34
2023-05-09T01:07:52.619Z,100143.97
2023-05-09T01:08:32.984Z,100147.72
2023-05-09T01:09:21.035Z,100151.09
2023-05-09T01:10:07.626Z,100150.13
2023-05-09T01:10:54.540Z,100147.97
2023-05-09T01:11:34.769Z,100143.78
2023-05-09T01:12:26.499Z,100144.63
2023-05-09T01:13:14.401Z,100155.25
2023-05-09T01:13:48.538Z,100146.56
2023-05-09T01:14:20.250Z,100148.22
2023-05-09T01:14:57.417Z,100150.91
2023-05-09T01:15:49.065Z,100150.91
2023-05-09T01:16:20.662Z,100148.09
2023-05-09T01:17:10.718Z,100148.97
2023-05-09T01:17:47.995Z,100145.69
2023-05-09T01:18:21.568Z,100144.63
2023-05-09T01:18:56.268Z,100139.88
2023-05-09T01:19:46.160Z,100138.22
2023-05-09T01:20:20.720Z,100144.34
2023-05-09T01:21:00.209Z,100131.50
2023-05-09T01:21:31.733Z,100136.97
2023-05-09T01:22:03.991Z,100135.38
2023-05-09T01:22:35.610Z,100132.72
2023-05-09T01:23:25.565Z,100130.69
2023-05-09T01:24:15.778Z,100130.34
2023-05-09T01:25:05.680Z,100129.09
2023-05-09T01:25:40.978Z,100126.19
2023-05-09T01:26:35.163Z,100130.94
2023-05-09T01:27:12.246Z,100126.44
2023-05-09T01:28:02.842Z,100127.16
2023-05-09T01:28:35.206Z,100123.06
2023-05-09T01:29:14.733Z,100127.56
2023-05-09T01:29:47.305Z,100124.16
2023-05-09T01:30:18.941Z,100121.63
2023-05-09T01:30:50.511Z,100117.19
2023-05-09T01:31:22.206Z,100124.75
2023-05-09T01:31:53.889Z,100123.06
2023-05-09T01:32:27.000Z,100122.63
2023-05-09T01:32:59.586Z,100126.94
2023-05-09T01:33:31.305Z,100124.75
2023-05-09T01:34:02.913Z,100129.59
2023-05-09T01:34:34.465Z,100120.09
2023-05-09T01:35:06.230Z,100118.00
2023-05-09T01:35:37.896Z,100113.66
2023-05-09T01:36:17.272Z,100116.75
2023-05-09T01:36:49.021Z,100108.66
2023-05-09T01:37:22.318Z,100109.78
2023-05-09T01:37:53.959Z,100107.25
2023-05-09T01:38:25.578Z,100105.66
2023-05-09T01:38:57.291Z,100106.66
2023-05-09T01:39:28.984Z,100104.72
2023-05-09T01:40:00.852Z,100102.19
2023-05-09T01:40:32.473Z,100107.38
2023-05-09T01:41:04.129Z,100100.97
2023-05-09T01:41:36.396Z,100101.09
2023-05-09T01:42:08.485Z,100107.38
2023-05-09T01:43:00.383Z,100104.00
2023-05-09T01:43:32.061Z,100103.88
2023-05-09T01:44:04.629Z,100103.00
2023-05-09T01:44:37.418Z,100107.88
2023-05-09T01:45:09.728Z,100101.84
2023-05-09T01:45:41.610Z,100100.47
2023-05-09T01:46:13.258Z,100097.44
2023-05-09T01:46:44.981Z,100100.34
2023-05-09T01:47:16.601Z,100104.00
2023-05-09T01:47:48.503Z,100103.75
2023-05-09T01:48:20.223Z,100100.34
2023-05-09T01:48:51.838Z,100101.34
2023-05-09T01:49:24.651Z,100106.66
2023-05-09T01:49:56.285Z,100103.25
2023-05-09T01:50:28.696Z,100104.25
2023-05-09T01:51:00.287Z,100100.47
2023-05-09T01:51:31.869Z,100094.31
2023-05-09T01:52:07.429Z,100100.22
2023-05-09T01:52:39.130Z,100100.81
2023-05-09T01:53:10.709Z,100091.16
2023-05-09T01:53:42.350Z,100100.09
2023-05-09T01:54:13.897Z,100092.81
2023-05-09T01:54:45.478Z,100101.78
2023-05-09T01:55:17.137Z,100101.78
2023-05-09T01:55:48.712Z,100087.50
2023-05-09T01:56:20.260Z,100087.78
2023-05-09T01:56:51.813Z,100089.97
2023-05-09T01:57:23.367Z,100094.44
2023-05-09T01:57:55.025Z,100095.28
2023-05-09T01:58:27.088Z,100094.06
2023-05-09T01:58:58.810Z,100089.31
2023-05-09T01:59:31.022Z,100094.78
2023-05-09T02:00:02.901Z,100092.38
2023-05-09T02:00:34.944Z,100088.88
2023-05-09T02:01:06.684Z,100096.72
2023-05-09T02:01:38.324Z,100085.84
2023-05-09T02:02:09.989Z,100084.84
2023-05-09T02:02:41.820Z,100084.25
2023-05-09T02:03:13.606Z,100085.25
2023-05-09T02:03:45.605Z,100082.47
2023-05-09T02:04:17.349Z,100079.06
2023-05-09T02:04:48.968Z,100084.13
2023-05-09T02:05:20.623Z,100080.75
2023-05-09T02:05:52.257Z,100087.16
2023-05-09T02:06:23.913Z,100088.16
2023-05-09T02:06:55.456Z,100086.59
2023-05-09T02:07:27.049Z,100089.13
2023-05-09T02:07:59.124Z,100090.69
2023-05-09T02:08:30.890Z,100089.72
2023-05-09T02:09:02.503Z,100096.16
2023-05-09T02:09:34.085Z,100097.94
2023-05-09T02:10:05.974Z,100086.91
2023-05-09T02:10:37.591Z,100091.16
2023-05-09T02:11:09.206Z,100095.63
2023-05-09T02:11:40.826Z,100097.56
2023-05-09T02:12:12.405Z,100099.38
2023-05-09T02:12:44.064Z,100092.50
2023-05-09T02:13:15.697Z,100094.31
2023-05-09T02:13:47.381Z,100094.31
2023-05-09T02:14:18.951Z,100103.00
2023-05-09T02:14:50.864Z,100096.47
2023-05-09T02:15:22.482Z,100099.25
2023-05-09T02:15:54.269Z,100090.31
2023-05-09T02:16:25.831Z,100097.69
2023-05-09T02:16:57.602Z,100082.47
2023-05-09T02:17:29.451Z,100093.94
2023-05-09T02:18:01.194Z,100086.91
2023-05-09T02:18:32.852Z,100085.84
2023-05-09T02:19:04.442Z,100082.34
2023-05-09T02:19:36.053Z,100088.63
2023-05-09T02:20:08.053Z,100100.34
2023-05-09T02:20:40.080Z,100080.06
2023-05-09T02:21:11.891Z,100085.25
2023-05-09T02:21:43.531Z,100086.53
2023-05-09T02:22:15.295Z,100084.84
2023-05-09T02:22:46.891Z,100085.13
2023-05-09T02:23:18.527Z,100073.75
2023-05-09T02:23:50.149Z,100081.03
2023-05-09T02:24:21.746Z,100081.84
2023-05-09T02:24:53.313Z,100089.13
2023-05-09T02:25:24.937Z,100084.38
2023-05-09T02:25:56.628Z,100084.63
2023-05-09T02:26:28.440Z,100086.91
2023-05-09T02:27:00.280Z,100078.22
2023-05-09T02:27:32.704Z,100074.13
2023-05-09T02:28:04.304Z,100087.59
2023-05-09T02:28:35.954Z,100081.84
2023-05-09T02:29:07.503Z,100076.41
2023-05-09T02:29:41.715Z,100079.69
2023-05-09T02:30:18.189Z,100076.53
2023-05-09T02:30:49.882Z,100078.47
2023-05-09T02:31:22.008Z,100081.28
2023-05-09T02:31:53.591Z,100073.03
2023-05-09T02:32:25.831Z,100070.50
2023-05-09T02:32:59.285Z,100074.13
2023-05-09T02:33:30.847Z,100075.69
2023-05-09T02:34:02.649Z,100075.81
2023-05-09T02:34:34.238Z,100073.03
2023-05-09T02:35:06.651Z,100079.19
2023-05-09T02:35:38.328Z,100079.31
2023-05-09T02:36:10.006Z,100075.94
2023-05-09T02:36:41.562Z,100084.63
2023-05-09T02:37:13.397Z,100076.66
2023-05-09T02:37:45.386Z,100083.22
2023-05-09T02:38:16.992Z,100077.66
2023-05-09T02:38:48.707Z,100081.03
2023-05-09T02:39:20.329Z,100081.84
2023-05-09T02:39:51.912Z,100070.13
2023-05-09T02:40:23.490Z,100079.94
2023-05-09T02:40:55.224Z,100077.66
2023-05-09T02:41:26.783Z,100075.94
2023-05-09T02:42:04.866Z,100072.06
2023-05-09T02:42:36.543Z,100067.72
2023-05-09T02:43:08.112Z,100079.06
2023-05-09T02:43:39.691Z,100076.66
2023-05-09T02:44:11.609Z,100076.78
2023-05-09T02:44:43.160Z,100082.72
2023-05-09T02:45:15.010Z,100079.06
2023-05-09T02:45:46.807Z,100077.28
2023-05-09T02:46:18.541Z,100080.50
2023-05-09T02:46:50.370Z,100079.69
2023-05-09T02:47:22.031Z,100080.06
2023-05-09T02:47:53.795Z,100076.78
2023-05-09T02:48:25.512Z,100079.06
2023-05-09T02:48:57.390Z,100083.81
2023-05-09T02:49:32.285Z,100086.59
2023-05-09T02:50:04.660Z,100076.78
2023-05-09T02:50:36.301Z,100073.16
2023-05-09T02:51:07.869Z,100072.06
2023-05-09T02:51:39.609Z,100073.88
2023-05-09T02:52:11.232Z,100079.59
2023-05-09T02:52:42.874Z,100079.59
2023-05-09T02:53:14.429Z,100086.00
2023-05-09T02:53:46.066Z,100079.72
2023-05-09T02:54:17.715Z,100081.28
2023-05-09T02:54:49.311Z,100088.66
2023-05-09T02:55:20.884Z,100083.22
2023-05-09T02:55:52.645Z,100086.84
2023-05-09T02:56:24.273Z,100075.50
2023-05-09T02:56:58.622Z,100079.72
2023-05-09T02:57:30.247Z,100082.38
2023-05-09T02:58:12.141Z,100075.13
2023-05-09T02:58:44.878Z,100083.47
2023-05-09T02:59:17.934Z,100078.16
2023-05-09T02:59:49.558Z,100075.00
2023-05-09T03:00:21.188Z,100079.59
2023-05-09T03:00:52.818Z,100079.00
2023-05-09T03:01:24.528Z,100080.56
2023-05-09T03:01:56.187Z,100082.50
2023-05-09T03:02:27.956Z,100075.13
2023-05-09T03:03:00.229Z,100079.59
2023-05-09T03:03:31.999Z,100082.50
2023-05-09T03:04:03.692Z,100072.97
2023-05-09T03:04:35.285Z,100082.91
2023-05-09T03:05:07.010Z,100077.31
2023-05-09T03:05:38.561Z,100071.38
2023-05-09T03:06:10.151Z,100078.88
2023-05-09T03:06:41.790Z,100070.31
2023-05-09T03:07:13.415Z,100069.22
2023-05-09T03:07:45.012Z,100075.50
2023-05-09T03:08:16.589Z,100074.53
2023-05-09T03:08:48.244Z,100073.78
2023-05-09T03:09:19.941Z,100066.44
2023-05-09T03:09:51.538Z,100073.78
2023-05-09T03:10:23.178Z,100070.31
2023-05-09T03:10:54.845Z,100062.91
2023-05-09T03:11:26.401Z,100067.53
2023-05-09T03:11:58.108Z,100073.09
2023-05-09T03:12:29.688Z,100065.81
2023-05-09T03:13:01.521Z,100073.09
2023-05-09T03:13:33.076Z,100073.09
2023-05-09T03:14:04.866Z,100069.47
2023-05-09T03:14:36.500Z,100067.78
2023-05-09T03:15:08.436Z,100068.34
2023-05-09T03:15:39.995Z,100070.06
2023-05-09T03:16:14.666Z,100076.47
2023-05-09T03:16:46.250Z,100062.91
2023-05-09T03:17:17.905Z,100060.50
2023-05-09T03:17:49.535Z,100064.16
2023-05-09T03:18:21.183Z,100067.78
2023-05-09T03:18:52.773Z,100061.38
2023-05-09T03:19:24.366Z,100059.78
2023-05-09T03:19:56.005Z,100054.09
2023-05-09T03:20:27.576Z,100062.19
2023-05-09T03:20:59.183Z,100062.44
2023-05-09T03:21:30.751Z,100057.84
2023-05-09T03:22:02.318Z,100061.25
2023-05-09T03:22:33.908Z,100060.63
2023-05-09T03:23:05.445Z,100057.38
2023-05-09T03:23:37.079Z,100062.44
2023-05-09T03:24:08.673Z,100058.97
2023-05-09T03:24:40.302Z,100054.84
2023-05-09T03:25:11.999Z,100055.72
2023-05-09T03:25:43.697Z,100054.47
2023-05-09T03:26:15.234Z,100061.88
2023-05-09T03:26:46.828Z,100059.34
2023-05-09T03:27:18.427Z,100060.44
2023-05-09T03:27:50.028Z,100054.03
2023-05-09T03:28:21.597Z,100053.19
2023-05-09T03:28:53.229Z,100067.56
2023-05-09T03:29:24.780Z,100060.44
2023-05-09T03:29:56.373Z,100060.44
2023-05-09T03:30:28.008Z,100056.09
2023-05-09T03:30:59.605Z,100052.56
2023-05-09T03:31:31.335Z,100057.88
2023-05-09T03:32:03.049Z,100059.59
2023-05-09T03:32:34.713Z,100057.19
2023-05-09T03:33:06.497Z,100059.72
2023-05-09T03:33:38.108Z,100054.53
2023-05-09T03:34:09.676Z,100054.41
2023-05-09T03:34:41.281Z,100054.03
2023-05-09T03:35:13.270Z,100056.81
2023-05-09T03:35:45.045Z,100055.09
2023-05-09T03:36:16.650Z,100054.28
2023-05-09T03:36:48.307Z,100048.69
2023-05-09T03:37:19.895Z,100049.53
2023-05-09T03:37:51.525Z,100051.09
2023-05-09T03:38:23.236Z,100048.69
2023-05-09T03:38:54.829Z,100046.28
2023-05-09T03:39:26.447Z,100045.91
2023-05-09T03:39:58.234Z,100045.91
2023-05-09T03:40:29.788Z,100046.88
2023-05-09T03:41:01.343Z,100044.47
2023-05-09T03:41:32.938Z,100046.16
2023-05-09T03:42:04.649Z,100041.69
2023-05-09T03:42:36.240Z,100050.41
2023-05-09T03:43:07.790Z,100040.47
2023-05-09T03:43:39.417Z,100037.94
2023-05-09T03:44:10.977Z,100047.31
2023-05-09T03:44:42.535Z,100049.28
2023-05-09T03:45:14.414Z,100042.41
2023-05-09T03:45:46.245Z,100040.00
2023-05-09T03:46:17.842Z,100040.59
2023-05-09T03:46:49.472Z,100047.75
2023-05-09T03:47:21.034Z,100044.34
2023-05-09T03:47:52.657Z,100036.38
2023-05-09T03:48:24.313Z,100039.16
2023-05-09T03:48:56.005Z,100041.22
2023-05-09T03:49:27.753Z,100039.41
2023-05-09T03:49:59.341Z,100040.97
2023-05-09T03:50:30.959Z,100037.47
2023-05-09T03:51:02.508Z,100040.84
2023-05-09T03:51:36.641Z,100042.66
2023-05-09T03:52:08.233Z,100037.34
2023-05-09T03:52:39.783Z,100037.59
2023-05-09T03:53:11.365Z,100042.94
2023-05-09T03:53:43.605Z,100040.25
2023-05-09T03:54:15.199Z,100027.69
2023-05-09T03:54:46.863Z,100039.03
2023-05-09T03:55:18.486Z,100033.81
2023-05-09T03:55:50.067Z,100037.09
2023-05-09T03:56:21.856Z,100034.69
2023-05-09T03:56:53.452Z,100033.00
2023-05-09T03:57:25.088Z,100031.28
2023-05-09T03:57:56.719Z,100032.41
2023-05-09T03:58:28.547Z,100031.28
2023-05-09T03:59:00.251Z,100034.09
2023-05-09T03:59:31.838Z,100037.84
2023-05-09T04:00:03.978Z,100026.84
2023-05-09T04:00:35.559Z,100029.38
2023-05-09T04:01:07.144Z,100038.19
2023-05-09T04:01:40.081Z,100032.03
2023-05-09T04:02:11.936Z,100030.47
2023-05-09T04:02:43.674Z,100034.94
2023-05-09T04:03:15.404Z,100035.66
2023-05-09T04:03:47.034Z,100032.28
2023-05-09T04:04:18.805Z,100027.94
2023-05-09T04:04:50.380Z,100028.75
2023-05-09T04:05:21.966Z,100028.75
2023-05-09T04:05:53.684Z,100033.50
2023-05-09T04:06:25.251Z,100033.50
2023-05-09T04:06:56.801Z,100029.75
2023-05-09T04:07:28.591Z,100033.25
2023-05-09T04:08:00.173Z,100027.94
2023-05-09T04:08:32.182Z,100027.94
2023-05-09T04:09:03.974Z,100036.63
2023-05-09T04:09:35.648Z,100027.94
2023-05-09T04:10:07.678Z,100031.28
2023-05-09T04:10:39.263Z,100026.84
2023-05-09T04:11:10.828Z,100029.97
2023-05-09T04:11:42.379Z,100030.78
2023-05-09T04:12:13.939Z,100026.47
2023-05-09T04:13:23.905Z,100021.97
2023-05-09T04:13:55.342Z,100034.44
2023-05-09T04:14:26.673Z,100027.41
2023-05-09T04:14:58.199Z,100029.38
2023-05-09T04:15:29.779Z,100027.69
2023-05-09T04:16:01.684Z,100027.41
2023-05-09T04:16:33.533Z,100024.06
2023-05-09T04:17:05.481Z,100024.06
2023-05-09T04:17:37.273Z,100022.94
2023-05-09T04:18:08.997Z,100024.88
2023-05-09T04:18:40.669Z,100023.06
2023-05-09T04:19:12.266Z,100019.69
2023-05-09T04:19:43.897Z,100022.34
2023-05-09T04:20:15.512Z,100025.72
2023-05-09T04:20:47.184Z,100034.81
2023-05-09T04:21:18.910Z,100031.03
2023-05-09T04:21:50.565Z,100034.69
2023-05-09T04:22:22.276Z,100033.97
2023-05-09T04:22:54.013Z,100030.47
2023-05-09T04:23:25.578Z,100032.28
2023-05-09T04:23:57.363Z,100031.03
2023-05-09T04:24:28.964Z,100032.03
2023-05-09T04:25:00.579Z,100025.84
2023-05-09T04:25:32.271Z,100028.25
2023-05-09T04:26:03.885Z,100027.03
2023-05-09T04:26:35.475Z,100028.84
2023-05-09T04:27:07.021Z,100028.00
2023-05-09T04:27:38.612Z,100025.47
2023-05-09T04:28:10.321Z,100021.97
2023-05-09T04:28:41.913Z,100029.00
2023-05-09T04:29:13.530Z,100030.78
2023-05-09T04:29:45.160Z,100029.97
2023-05-09T04:30:16.787Z,100029.25
2023-05-09T04:30:48.563Z,100026.72
2023-05-09T04:31:20.346Z,100028.13
2023-05-09T04:31:52.173Z,100024.63
2023-05-09T04:32:23.966Z,100022.94
2023-05-09T04:32:55.670Z,100020.41
2023-05-09T04:33:27.323Z,100022.69
2023-05-09T04:33:58.894Z,100016.53
2023-05-09T04:34:30.575Z,100024.38
2023-05-09T04:35:02.286Z,100020.84
2023-05-09T04:35:33.955Z,100020.28
2023-05-09T04:36:05.974Z,100020.66
2023-05-09T04:36:37.515Z,100020.41
2023-05-09T04:37:09.109Z,100021.16
2023-05-09T04:37:40.681Z,100023.06
2023-05-09T04:38:12.301Z,100018.88
2023-05-09T04:38:43.908Z,100018.75
2023-05-09T04:39:15.471Z,100016.53
2023-05-09T04:39:47.120Z,100018.34
2023-05-09T04:40:18.826Z,100022.94
2023-05-09T04:40:50.381Z,100018.63
2023-05-09T04:41:22.047Z,100021.41
2023-05-09T04:41:53.667Z,100016.06
2023-05-09T04:42:25.259Z,100022.22
2023-05-09T04:42:57.103Z,100020.41
2023-05-09T04:43:28.785Z,100014.84
2023-05-09T04:44:00.732Z,100012.16
2023-05-09T04:44:32.400Z,100008.56
2023-05-09T04:45:04.333Z,100019.91
2023-05-09T04:45:36.180Z,100018.19
2023-05-09T04:46:08.013Z,100017.38
2023-05-09T04:46:40.004Z,100018.19
2023-05-09T04:47:11.755Z,100025.59
2023-05-09T04:47:43.492Z,100020.41
2023-05-09T04:48:15.070Z,100017.75
2023-05-09T04:48:46.656Z,100024.06
2023-05-09T04:49:18.332Z,100016.78
2023-05-09T04:49:49.959Z,100017.63
2023-05-09T04:50:21.571Z,100018.47
2023-05-09T04:50:53.286Z,100011.22
2023-05-09T04:51:24.930Z,100012.44
2023-05-09T04:51:56.556Z,100006.84
2023-05-09T04:52:28.112Z,100004.19
2023-05-09T04:52:59.842Z,100013.88
2023-05-09T04:53:31.498Z,100012.16
2023-05-09T04:54:03.233Z,100010.22
2023-05-09T04:54:34.962Z,100012.03
2023-05-09T04:55:06.746Z,100011.22
2023-05-09T04:55:38.337Z,100019.19
2023-05-09T04:56:10.004Z,100011.47
2023-05-09T04:56:41.579Z,100005.31
2023-05-09T04:57:17.911Z,100001.53
2023-05-09T04:57:50.484Z,100001.53
2023-05-09T04:58:22.081Z,99998.88
2023-05-09T04:58:53.664Z,99995.25
2023-05-09T04:59:25.306Z,99997.78
2023-05-09T04:59:56.959Z,99997.78
2023-05-09T05:00:28.635Z,99995.00
2023-05-09T05:01:00.181Z,99990.63
2023-05-09T05:01:31.983Z,100000.31
2023-05-09T05:02:03.674Z,99994.88
2023-05-09T05:02:35.375Z,99989.81
2023-05-09T05:03:07.288Z,99989.69
2023-05-09T05:03:39.077Z,99990.63
2023-05-09T05:04:10.921Z,99996.09
2023-05-09T05:04:42.682Z,99991.59
2023-05-09T05:05:14.560Z,99982.66
2023-05-09T05:05:46.391Z,99994.75
2023-05-09T05:06:18.100Z,99987.59
2023-05-09T05:06:49.733Z,99994.75
2023-05-09T05:07:21.338Z,99993.03
2023-05-09T05:07:53.018Z,99988.81
2023-05-09T05:08:24.628Z,99986.03
2023-05-09T05:08:56.275Z,99987.84
2023-05-09T05:09:27.962Z,99985.19
2023-05-09T05:09:59.598Z,99993.31
2023-05-09T05:10:31.208Z,99993.31
2023-05-09T05:11:02.775Z,99991.47
2023-05-09T05:11:34.409Z,99987.97
2023-05-09T05:12:08.374Z,99991.59
2023-05-09T05:12:41.101Z,99987.16
2023-05-09T05:13:12.745Z,99991.59
2023-05-09T05:13:44.644Z,99985.56
2023-05-09T05:14:16.253Z,99986.44
2023-05-09T05:14:47.909Z,99987.28
2023-05-09T05:15:19.653Z,99988.81
2023-05-09T05:15:51.318Z,99986.28
2023-05-09T05:16:22.953Z,99979.28
2023-05-09T05:16:54.514Z,99980.97
2023-05-09T05:17:26.231Z,99987.97
2023-05-09T05:17:57.874Z,99977.59
2023-05-09T05:18:29.542Z,99981.81
2023-05-09T05:19:01.158Z,99979.63
2023-05-09T05:19:32.767Z,99986.75
2023-05-09T05:20:04.561Z,99986.88
2023-05-09T05:20:36.203Z,99972.84
2023-05-09T05:21:07.785Z,99974.81
2023-05-09T05:21:39.368Z,99967.53
2023-05-09T05:22:11.038Z,99972.97
2023-05-09T05:22:42.706Z,99973.72
2023-05-09T05:23:14.455Z,99966.44
2023-05-09T05:23:46.098Z,99969.22
2023-05-09T05:24:17.656Z,99969.22
2023-05-09T05:24:49.238Z,99970.06
2023-05-09T05:25:20.848Z,99974.56
2023-05-09T05:25:52.491Z,99969.22
2023-05-09T05:26:24.217Z,99969.22
2023-05-09T05:26:55.875Z,99968.53
2023-05-09T05:27:27.576Z,99967.41
2023-05-09T05:27:59.117Z,99963.09
2023-05-09T05:28:30.840Z,99976.38
2023-05-09T05:29:02.425Z,99964.75
2023-05-09T05:29:34.035Z,99969.22
2023-05-09T05:30:05.833Z,99974.56
2023-05-09T05:30:37.369Z,99965.59
2023-05-09T05:31:08.956Z,99972.34
2023-05-09T05:31:40.729Z,99967.88
2023-05-09T05:32:12.306Z,99962.81
2023-05-09T05:32:43.930Z,99967.28
2023-05-09T05:33:15.748Z,99964.63
2023-05-09T05:33:47.445Z,99959.44
2023-05-09T05:34:19.065Z,99960.28
2023-05-09T05:34:50.672Z,99957.50
2023-05-09T05:35:22.248Z,99959.91
2023-05-09T05:35:53.801Z,99960.88
2023-05-09T05:36:25.398Z,99961.13
2023-05-09T05:36:57.126Z,99953.16
2023-05-09T05:37:28.718Z,99955.53
2023-05-09T05:38:00.307Z,99962.56
2023-05-09T05:38:31.901Z,99958.22
2023-05-09T05:39:03.567Z,99953.59
2023-05-09T05:39:35.192Z,99960.72
2023-05-09T05:40:06.901Z,99965.94
2023-05-09T05:40:38.508Z,99961.31
2023-05-09T05:41:10.125Z,99956.25
2023-05-09T05:41:41.978Z,99960.59
2023-05-09T05:42:13.767Z,99957.25
2023-05-09T05:42:45.480Z,99957.09
2023-05-09T05:43:17.091Z,99956.25
2023-05-09T05:43:48.670Z,99953.34
2023-05-09T05:44:20.404Z,99956.13
2023-05-09T05:44:52.148Z,99954.59
2023-05-09T05:45:23.875Z,99954.72
2023-05-09T05:45:55.599Z,99960.88
2023-05-09T05:46:27.341Z,99962.56
2023-05-09T05:46:58.979Z,99949.97
2023-05-09T05:47:33.382Z,99949.97
2023-05-09T05:48:05.497Z,99952.75
2023-05-09T05:48:37.087Z,99947.44
2023-05-09T05:49:08.719Z,99953.72
2023-05-09T05:49:40.375Z,99953.59
2023-05-09T05:50:14.686Z,99949.72
2023-05-09T05:50:46.303Z,99952.38
2023-05-09T05:51:17.890Z,99951.38
2023-05-09T05:51:49.570Z,99959.34
2023-05-09T05:52:21.165Z,99953.06
2023-05-09T05:52:52.781Z,99955.72
2023-05-09T05:53:24.436Z,99951.38
2023-05-09T05:53:56.041Z,99955.03
2023-05-09T05:54:27.645Z,99960.47
2023-05-09T05:54:59.292Z,99956.69
2023-05-09T05:55:30.975Z,99949.72
2023-05-09T05:56:02.580Z,99950.53
2023-05-09T05:56:34.142Z,99952.09
2023-05-09T05:57:05.809Z,99946.91
2023-05-09T05:57:37.406Z,99942.44
2023-05-09T05:58:09.069Z,99953.06
2023-05-09T05:58:40.684Z,99946.06
2023-05-09T05:59:13.502Z,99950.53
2023-05-09T05:59:47.191Z,99948.59
2023-05-09T06:00:18.906Z,99946.19
2023-05-09T06:00:51.374Z,99946.91
2023-05-09T06:01:23.003Z,99942.16
2023-05-09T06:01:54.631Z,99948.59
2023-05-09T06:02:26.296Z,99948.31
2023-05-09T06:02:58.174Z,99950.28
2023-05-09T06:03:29.845Z,99941.59
2023-05-09T06:04:01.567Z,99941.47
2023-05-09T06:04:33.239Z,99941.47
2023-05-09T06:05:05.192Z,99945.78
2023-05-09T06:05:36.824Z,99947.75
2023-05-09T06:06:08.479Z,99944.38
2023-05-09T06:06:40.121Z,99953.06
2023-05-09T06:07:11.916Z,99950.28
2023-05-09T06:07:43.489Z,99944.13
2023-05-09T06:08:15.147Z,99947.50
2023-05-09T06:08:46.675Z,99943.84
2023-05-09T06:09:18.266Z,99949.31
2023-05-09T06:09:49.833Z,99952.69
2023-05-09T06:10:21.426Z,99948.06
2023-05-09T06:10:53.041Z,99947.50
2023-05-09T06:11:24.681Z,99940.22